sensor_id;sensor_type;location;lat;lon;timestamp;temperature;humidity
1351;DHT22;669;50.206;9.998;2024-03-02T00:01:51;4.20;26.40
1351;DHT22;669;50.206;9.998;2024-03-02T00:04:19;4.20;26.90
1351;DHT22;669;50.206;9.998;2024-03-02T00:06:47;4.20;27.20
1351;DHT22;669;50.206;9.998;2024-03-02T00:09:15;4.20;27.30
1351;DHT22;669;50.206;9.998;2024-03-02T00:11:43;4.20;27.30
1351;DHT22;669;50.206;9.998;2024-03-02T00:14:12;4.20;27.20
1351;DHT22;669;50.206;9.998;2024-03-02T00:16:40;4.20;27.10
1351;DHT22;669;50.206;9.998;2024-03-02T00:19:09;4.20;26.80
1351;DHT22;669;50.206;9.998;2024-03-02T00:21:37;4.20;26.40
1351;DHT22;669;50.206;9.998;2024-03-02T00:24:17;4.20;26.80
1351;DHT22;669;50.206;9.998;2024-03-02T00:26:46;4.10;26.60
1351;DHT22;669;50.206;9.998;2024-03-02T00:29:17;4.10;26.30
1351;DHT22;669;50.206;9.998;2024-03-02T00:31:46;4.00;23.90
1351;DHT22;669;50.206;9.998;2024-03-02T00:34:15;3.80;23.70
1351;DHT22;669;50.206;9.998;2024-03-02T00:36:45;3.70;22.50
1351;DHT22;669;50.206;9.998;2024-03-02T00:39:15;3.60;23.60
1351;DHT22;669;50.206;9.998;2024-03-02T00:41:44;3.50;24.50
1351;DHT22;669;50.206;9.998;2024-03-02T00:44:13;3.60;25.50
1351;DHT22;669;50.206;9.998;2024-03-02T00:46:44;3.60;25.50
1351;DHT22;669;50.206;9.998;2024-03-02T00:49:18;3.60;25.20
1351;DHT22;669;50.206;9.998;2024-03-02T00:51:49;3.60;25.50
1351;DHT22;669;50.206;9.998;2024-03-02T00:54:20;3.50;25.80
1351;DHT22;669;50.206;9.998;2024-03-02T00:56:47;3.60;26.10
1351;DHT22;669;50.206;9.998;2024-03-02T00:59:16;3.60;26.40
1351;DHT22;669;50.206;9.998;2024-03-02T01:01:45;3.60;25.90
1351;DHT22;669;50.206;9.998;2024-03-02T01:04:13;3.60;26.60
1351;DHT22;669;50.206;9.998;2024-03-02T01:06:42;3.60;26.70
1351;DHT22;669;50.206;9.998;2024-03-02T01:09:10;3.60;26.60
1351;DHT22;669;50.206;9.998;2024-03-02T01:11:39;3.60;26.40
1351;DHT22;669;50.206;9.998;2024-03-02T01:14:07;3.60;26.30
1351;DHT22;669;50.206;9.998;2024-03-02T01:16:35;3.70;27.00
1351;DHT22;669;50.206;9.998;2024-03-02T01:19:05;3.70;26.70
1351;DHT22;669;50.206;9.998;2024-03-02T01:21:33;3.60;25.80
1351;DHT22;669;50.206;9.998;2024-03-02T01:24:01;3.50;24.70
1351;DHT22;669;50.206;9.998;2024-03-02T01:26:29;3.50;25.20
1351;DHT22;669;50.206;9.998;2024-03-02T01:28:57;3.40;25.20
1351;DHT22;669;50.206;9.998;2024-03-02T01:31:25;3.40;25.60
1351;DHT22;669;50.206;9.998;2024-03-02T01:33:53;3.40;26.00
1351;DHT22;669;50.206;9.998;2024-03-02T01:36:22;3.50;26.40
1351;DHT22;669;50.206;9.998;2024-03-02T01:38:50;3.50;27.00
1351;DHT22;669;50.206;9.998;2024-03-02T01:41:18;3.60;27.10
1351;DHT22;669;50.206;9.998;2024-03-02T01:43:46;3.60;27.10
1351;DHT22;669;50.206;9.998;2024-03-02T01:46:14;3.60;27.20
1351;DHT22;669;50.206;9.998;2024-03-02T01:48:42;3.60;27.30
1351;DHT22;669;50.206;9.998;2024-03-02T01:51:10;3.70;27.20
1351;DHT22;669;50.206;9.998;2024-03-02T01:53:39;3.70;26.50
1351;DHT22;669;50.206;9.998;2024-03-02T01:56:07;3.60;26.30
1351;DHT22;669;50.206;9.998;2024-03-02T01:58:35;3.70;27.70
1351;DHT22;669;50.206;9.998;2024-03-02T02:01:03;3.70;27.40
1351;DHT22;669;50.206;9.998;2024-03-02T02:03:31;3.70;27.60
1351;DHT22;669;50.206;9.998;2024-03-02T02:05:59;3.70;28.00
1351;DHT22;669;50.206;9.998;2024-03-02T02:08:27;3.70;28.10
1351;DHT22;669;50.206;9.998;2024-03-02T02:10:57;3.70;28.00
1351;DHT22;669;50.206;9.998;2024-03-02T02:13:25;3.80;28.80
1351;DHT22;669;50.206;9.998;2024-03-02T02:15:52;3.80;28.80
1351;DHT22;669;50.206;9.998;2024-03-02T02:18:20;3.80;28.90
1351;DHT22;669;50.206;9.998;2024-03-02T02:20:48;3.90;29.00
1351;DHT22;669;50.206;9.998;2024-03-02T02:23:18;3.90;28.70
1351;DHT22;669;50.206;9.998;2024-03-02T02:25:46;4.00;29.20
1351;DHT22;669;50.206;9.998;2024-03-02T02:28:14;4.00;28.90
1351;DHT22;669;50.206;9.998;2024-03-02T02:30:42;4.00;29.10
1351;DHT22;669;50.206;9.998;2024-03-02T02:33:10;4.00;28.60
1351;DHT22;669;50.206;9.998;2024-03-02T02:35:38;4.00;28.20
1351;DHT22;669;50.206;9.998;2024-03-02T02:38:06;4.00;27.80
1351;DHT22;669;50.206;9.998;2024-03-02T02:40:35;3.90;27.40
1351;DHT22;669;50.206;9.998;2024-03-02T02:43:03;3.90;27.20
1351;DHT22;669;50.206;9.998;2024-03-02T02:45:31;3.90;27.30
1351;DHT22;669;50.206;9.998;2024-03-02T02:47:59;3.80;27.20
1351;DHT22;669;50.206;9.998;2024-03-02T02:50:29;3.80;27.60
1351;DHT22;669;50.206;9.998;2024-03-02T02:52:57;3.80;27.10
1351;DHT22;669;50.206;9.998;2024-03-02T02:55:25;3.80;28.10
1351;DHT22;669;50.206;9.998;2024-03-02T02:57:54;3.80;27.50
1351;DHT22;669;50.206;9.998;2024-03-02T03:00:22;3.80;27.70
1351;DHT22;669;50.206;9.998;2024-03-02T03:02:50;3.70;27.20
1351;DHT22;669;50.206;9.998;2024-03-02T03:05:18;3.70;27.60
1351;DHT22;669;50.206;9.998;2024-03-02T03:07:46;3.70;26.90
1351;DHT22;669;50.206;9.998;2024-03-02T03:10:17;3.70;26.90
1351;DHT22;669;50.206;9.998;2024-03-02T03:12:47;3.70;27.50
1351;DHT22;669;50.206;9.998;2024-03-02T03:15:17;3.70;26.90
1351;DHT22;669;50.206;9.998;2024-03-02T03:17:45;3.60;27.00
1351;DHT22;669;50.206;9.998;2024-03-02T03:20:14;3.60;27.10
1351;DHT22;669;50.206;9.998;2024-03-02T03:22:42;3.60;27.60
1351;DHT22;669;50.206;9.998;2024-03-02T03:25:10;3.70;28.00
1351;DHT22;669;50.206;9.998;2024-03-02T03:27:39;3.70;28.00
1351;DHT22;669;50.206;9.998;2024-03-02T03:30:09;3.70;28.00
1351;DHT22;669;50.206;9.998;2024-03-02T03:32:38;3.70;28.10
1351;DHT22;669;50.206;9.998;2024-03-02T03:35:07;3.70;27.30
1351;DHT22;669;50.206;9.998;2024-03-02T03:37:35;3.60;27.10
1351;DHT22;669;50.206;9.998;2024-03-02T03:40:04;3.60;27.60
1351;DHT22;669;50.206;9.998;2024-03-02T03:42:37;3.60;28.00
1351;DHT22;669;50.206;9.998;2024-03-02T03:45:06;3.60;28.00
1351;DHT22;669;50.206;9.998;2024-03-02T03:47:34;3.60;27.10
1351;DHT22;669;50.206;9.998;2024-03-02T03:50:05;3.50;27.90
1351;DHT22;669;50.206;9.998;2024-03-02T03:52:34;3.50;26.80
1351;DHT22;669;50.206;9.998;2024-03-02T03:55:02;3.40;26.40
1351;DHT22;669;50.206;9.998;2024-03-02T03:57:32;3.40;26.60
1351;DHT22;669;50.206;9.998;2024-03-02T04:00:00;3.30;26.10
1351;DHT22;669;50.206;9.998;2024-03-02T04:02:28;3.30;27.80
1351;DHT22;669;50.206;9.998;2024-03-02T04:04:56;3.40;28.10
1351;DHT22;669;50.206;9.998;2024-03-02T04:07:25;3.40;27.80
1351;DHT22;669;50.206;9.998;2024-03-02T04:09:53;3.40;27.80
1351;DHT22;669;50.206;9.998;2024-03-02T04:12:21;3.30;26.30
1351;DHT22;669;50.206;9.998;2024-03-02T04:14:49;3.30;26.30
1351;DHT22;669;50.206;9.998;2024-03-02T04:17:17;3.20;26.50
1351;DHT22;669;50.206;9.998;2024-03-02T04:19:45;3.20;26.40
1351;DHT22;669;50.206;9.998;2024-03-02T04:22:13;3.20;26.60
1351;DHT22;669;50.206;9.998;2024-03-02T04:24:52;3.20;27.40
1351;DHT22;669;50.206;9.998;2024-03-02T04:27:20;3.20;27.80
1351;DHT22;669;50.206;9.998;2024-03-02T04:29:48;3.20;27.40
1351;DHT22;669;50.206;9.998;2024-03-02T04:32:16;3.20;27.60
1351;DHT22;669;50.206;9.998;2024-03-02T04:34:46;3.20;27.70
1351;DHT22;669;50.206;9.998;2024-03-02T04:37:14;3.10;27.30
1351;DHT22;669;50.206;9.998;2024-03-02T04:39:42;3.00;24.70
1351;DHT22;669;50.206;9.998;2024-03-02T04:42:11;2.80;22.10
1351;DHT22;669;50.206;9.998;2024-03-02T04:44:39;2.70;22.80
1351;DHT22;669;50.206;9.998;2024-03-02T04:47:07;2.60;23.20
1351;DHT22;669;50.206;9.998;2024-03-02T04:49:35;2.60;24.30
1351;DHT22;669;50.206;9.998;2024-03-02T04:52:03;2.60;25.20
1351;DHT22;669;50.206;9.998;2024-03-02T04:54:31;2.60;26.40
1351;DHT22;669;50.206;9.998;2024-03-02T04:57:01;2.60;26.80
1351;DHT22;669;50.206;9.998;2024-03-02T04:59:31;2.60;26.70
1351;DHT22;669;50.206;9.998;2024-03-02T05:01:59;2.60;25.20
1351;DHT22;669;50.206;9.998;2024-03-02T05:04:26;2.50;24.50
1351;DHT22;669;50.206;9.998;2024-03-02T05:06:54;2.40;23.90
1351;DHT22;669;50.206;9.998;2024-03-02T05:09:24;2.40;24.00
1351;DHT22;669;50.206;9.998;2024-03-02T05:11:52;2.40;24.40
1351;DHT22;669;50.206;9.998;2024-03-02T05:14:51;2.40;25.30
1351;DHT22;669;50.206;9.998;2024-03-02T05:17:19;2.30;24.00
1351;DHT22;669;50.206;9.998;2024-03-02T05:19:47;2.30;25.90
1351;DHT22;669;50.206;9.998;2024-03-02T05:22:15;2.30;24.70
1351;DHT22;669;50.206;9.998;2024-03-02T05:24:43;2.20;23.30
1351;DHT22;669;50.206;9.998;2024-03-02T05:27:11;2.10;22.60
1351;DHT22;669;50.206;9.998;2024-03-02T05:29:39;2.10;23.20
1351;DHT22;669;50.206;9.998;2024-03-02T05:32:09;2.00;23.20
1351;DHT22;669;50.206;9.998;2024-03-02T05:34:37;2.00;23.20
1351;DHT22;669;50.206;9.998;2024-03-02T05:37:05;1.90;23.30
1351;DHT22;669;50.206;9.998;2024-03-02T05:39:33;1.90;23.40
1351;DHT22;669;50.206;9.998;2024-03-02T05:42:01;1.90;23.90
1351;DHT22;669;50.206;9.998;2024-03-02T05:44:29;1.90;24.10
1351;DHT22;669;50.206;9.998;2024-03-02T05:46:58;1.90;24.00
1351;DHT22;669;50.206;9.998;2024-03-02T05:49:28;1.90;24.10
1351;DHT22;669;50.206;9.998;2024-03-02T05:51:56;1.90;25.00
1351;DHT22;669;50.206;9.998;2024-03-02T05:54:24;2.00;26.00
1351;DHT22;669;50.206;9.998;2024-03-02T05:56:52;2.10;26.60
1351;DHT22;669;50.206;9.998;2024-03-02T05:59:20;2.10;26.80
1351;DHT22;669;50.206;9.998;2024-03-02T06:01:49;2.10;23.80
1351;DHT22;669;50.206;9.998;2024-03-02T06:04:17;2.00;21.90
1351;DHT22;669;50.206;9.998;2024-03-02T06:06:46;1.90;22.50
1351;DHT22;669;50.206;9.998;2024-03-02T06:09:16;1.90;22.50
1351;DHT22;669;50.206;9.998;2024-03-02T06:11:44;1.80;23.10
1351;DHT22;669;50.206;9.998;2024-03-02T06:14:12;1.80;23.70
1351;DHT22;669;50.206;9.998;2024-03-02T06:16:40;1.90;24.40
1351;DHT22;669;50.206;9.998;2024-03-02T06:19:08;2.00;25.60
1351;DHT22;669;50.206;9.998;2024-03-02T06:21:36;2.00;25.90
1351;DHT22;669;50.206;9.998;2024-03-02T06:24:06;2.10;26.20
1351;DHT22;669;50.206;9.998;2024-03-02T06:26:34;2.20;25.90
1351;DHT22;669;50.206;9.998;2024-03-02T06:29:02;2.20;25.80
1351;DHT22;669;50.206;9.998;2024-03-02T06:31:30;2.30;25.90
1351;DHT22;669;50.206;9.998;2024-03-02T06:33:57;2.30;25.10
1351;DHT22;669;50.206;9.998;2024-03-02T06:36:25;2.30;24.00
1351;DHT22;669;50.206;9.998;2024-03-02T06:38:53;2.30;24.00
1351;DHT22;669;50.206;9.998;2024-03-02T06:41:22;2.30;24.30
1351;DHT22;669;50.206;9.998;2024-03-02T06:43:50;2.40;24.30
1351;DHT22;669;50.206;9.998;2024-03-02T06:46:26;2.40;23.70
1351;DHT22;669;50.206;9.998;2024-03-02T06:48:53;2.40;24.10
1351;DHT22;669;50.206;9.998;2024-03-02T06:51:21;2.50;24.80
1351;DHT22;669;50.206;9.998;2024-03-02T06:53:49;2.60;25.00
1351;DHT22;669;50.206;9.998;2024-03-02T06:56:17;2.60;23.00
1351;DHT22;669;50.206;9.998;2024-03-02T06:58:47;2.60;23.60
1351;DHT22;669;50.206;9.998;2024-03-02T07:01:14;2.70;24.20
1351;DHT22;669;50.206;9.998;2024-03-02T07:03:42;2.80;24.50
1351;DHT22;669;50.206;9.998;2024-03-02T07:06:10;2.90;24.90
1351;DHT22;669;50.206;9.998;2024-03-02T07:08:38;3.00;25.70
1351;DHT22;669;50.206;9.998;2024-03-02T07:11:06;3.10;26.50
1351;DHT22;669;50.206;9.998;2024-03-02T07:13:35;3.30;26.80
1351;DHT22;669;50.206;9.998;2024-03-02T07:16:04;3.40;25.80
1351;DHT22;669;50.206;9.998;2024-03-02T07:18:49;3.50;24.70
1351;DHT22;669;50.206;9.998;2024-03-02T07:21:19;3.50;24.30
1351;DHT22;669;50.206;9.998;2024-03-02T07:23:49;3.50;22.40
1351;DHT22;669;50.206;9.998;2024-03-02T07:26:17;3.50;23.40
1351;DHT22;669;50.206;9.998;2024-03-02T07:28:48;3.60;23.30
1351;DHT22;669;50.206;9.998;2024-03-02T07:31:18;3.60;23.20
1351;DHT22;669;50.206;9.998;2024-03-02T07:33:46;3.60;23.70
1351;DHT22;669;50.206;9.998;2024-03-02T07:36:14;3.70;24.40
1351;DHT22;669;50.206;9.998;2024-03-02T07:38:43;3.80;25.50
1351;DHT22;669;50.206;9.998;2024-03-02T07:41:12;3.90;26.40
1351;DHT22;669;50.206;9.998;2024-03-02T07:43:40;4.10;26.70
1351;DHT22;669;50.206;9.998;2024-03-02T07:46:08;4.20;27.00
1351;DHT22;669;50.206;9.998;2024-03-02T07:48:37;4.40;27.10
1351;DHT22;669;50.206;9.998;2024-03-02T07:51:05;4.50;27.30
1351;DHT22;669;50.206;9.998;2024-03-02T07:53:33;4.60;26.90
1351;DHT22;669;50.206;9.998;2024-03-02T07:56:01;4.70;26.80
1351;DHT22;669;50.206;9.998;2024-03-02T07:58:30;4.90;26.60
1351;DHT22;669;50.206;9.998;2024-03-02T08:00:58;5.00;26.80
1351;DHT22;669;50.206;9.998;2024-03-02T08:03:28;5.20;27.50
1351;DHT22;669;50.206;9.998;2024-03-02T08:05:57;5.30;26.60
1351;DHT22;669;50.206;9.998;2024-03-02T08:08:25;5.50;26.80
1351;DHT22;669;50.206;9.998;2024-03-02T08:10:53;5.70;26.70
1351;DHT22;669;50.206;9.998;2024-03-02T08:13:23;5.90;26.60
1351;DHT22;669;50.206;9.998;2024-03-02T08:15:51;6.10;26.60
1351;DHT22;669;50.206;9.998;2024-03-02T08:18:19;6.40;26.70
1351;DHT22;669;50.206;9.998;2024-03-02T08:20:47;6.50;25.20
1351;DHT22;669;50.206;9.998;2024-03-02T08:23:17;6.70;24.90
1351;DHT22;669;50.206;9.998;2024-03-02T08:25:45;6.90;24.00
1351;DHT22;669;50.206;9.998;2024-03-02T08:28:13;7.00;22.60
1351;DHT22;669;50.206;9.998;2024-03-02T08:30:41;7.10;23.80
1351;DHT22;669;50.206;9.998;2024-03-02T08:33:09;7.30;24.40
1351;DHT22;669;50.206;9.998;2024-03-02T08:35:37;7.40;22.70
1351;DHT22;669;50.206;9.998;2024-03-02T08:38:05;7.60;21.60
1351;DHT22;669;50.206;9.998;2024-03-02T08:40:35;7.70;21.20
1351;DHT22;669;50.206;9.998;2024-03-02T08:43:03;7.90;20.20
1351;DHT22;669;50.206;9.998;2024-03-02T08:45:31;7.90;19.40
1351;DHT22;669;50.206;9.998;2024-03-02T08:47:59;8.00;17.90
1351;DHT22;669;50.206;9.998;2024-03-02T08:50:27;8.10;17.60
1351;DHT22;669;50.206;9.998;2024-03-02T08:52:55;8.20;19.30
1351;DHT22;669;50.206;9.998;2024-03-02T08:55:23;8.30;18.00
1351;DHT22;669;50.206;9.998;2024-03-02T08:57:52;8.30;16.20
1351;DHT22;669;50.206;9.998;2024-03-02T09:00:20;8.30;15.50
1351;DHT22;669;50.206;9.998;2024-03-02T09:02:49;8.30;15.80
1351;DHT22;669;50.206;9.998;2024-03-02T09:05:17;8.40;15.90
1351;DHT22;669;50.206;9.998;2024-03-02T09:07:45;8.40;15.00
1351;DHT22;669;50.206;9.998;2024-03-02T09:10:12;8.50;13.70
1351;DHT22;669;50.206;9.998;2024-03-02T09:12:40;8.50;14.30
1351;DHT22;669;50.206;9.998;2024-03-02T09:15:10;8.60;14.70
1351;DHT22;669;50.206;9.998;2024-03-02T09:17:38;8.70;14.40
1351;DHT22;669;50.206;9.998;2024-03-02T09:20:07;8.90;14.10
1351;DHT22;669;50.206;9.998;2024-03-02T09:22:35;9.00;12.90
1351;DHT22;669;50.206;9.998;2024-03-02T09:25:03;9.10;12.20
1351;DHT22;669;50.206;9.998;2024-03-02T09:27:31;9.20;11.50
1351;DHT22;669;50.206;9.998;2024-03-02T09:29:59;9.30;11.50
1351;DHT22;669;50.206;9.998;2024-03-02T09:32:28;9.40;9.80
1351;DHT22;669;50.206;9.998;2024-03-02T09:34:56;9.50;8.20
1351;DHT22;669;50.206;9.998;2024-03-02T09:37:25;9.40;8.10
1351;DHT22;669;50.206;9.998;2024-03-02T09:39:53;9.50;8.10
1351;DHT22;669;50.206;9.998;2024-03-02T09:42:21;9.50;6.40
1351;DHT22;669;50.206;9.998;2024-03-02T09:44:50;9.50;8.10
1351;DHT22;669;50.206;9.998;2024-03-02T09:47:19;9.60;7.40
1351;DHT22;669;50.206;9.998;2024-03-02T09:49:48;9.50;6.20
1351;DHT22;669;50.206;9.998;2024-03-02T09:52:16;9.50;7.30
1351;DHT22;669;50.206;9.998;2024-03-02T09:54:44;9.50;8.70
1351;DHT22;669;50.206;9.998;2024-03-02T09:57:15;9.50;7.00
1351;DHT22;669;50.206;9.998;2024-03-02T09:59:43;9.60;7.60
1351;DHT22;669;50.206;9.998;2024-03-02T10:02:12;9.70;7.10
1351;DHT22;669;50.206;9.998;2024-03-02T10:04:40;9.70;6.60
1351;DHT22;669;50.206;9.998;2024-03-02T10:07:13;9.80;6.30
1351;DHT22;669;50.206;9.998;2024-03-02T10:09:42;9.90;5.30
1351;DHT22;669;50.206;9.998;2024-03-02T10:12:13;9.90;5.80
1351;DHT22;669;50.206;9.998;2024-03-02T10:14:41;10.00;4.10
1351;DHT22;669;50.206;9.998;2024-03-02T10:17:10;10.10;4.60
1351;DHT22;669;50.206;9.998;2024-03-02T10:19:39;10.20;4.10
1351;DHT22;669;50.206;9.998;2024-03-02T10:22:08;10.30;2.70
1351;DHT22;669;50.206;9.998;2024-03-02T10:24:39;10.30;3.20
1351;DHT22;669;50.206;9.998;2024-03-02T10:27:09;10.40;3.10
1351;DHT22;669;50.206;9.998;2024-03-02T10:29:37;10.40;2.70
1351;DHT22;669;50.206;9.998;2024-03-02T10:32:08;10.40;2.70
1351;DHT22;669;50.206;9.998;2024-03-02T10:34:39;10.30;2.70
1351;DHT22;669;50.206;9.998;2024-03-02T10:37:08;10.40;2.70
1351;DHT22;669;50.206;9.998;2024-03-02T10:39:37;10.40;2.70
1351;DHT22;669;50.206;9.998;2024-03-02T10:42:07;10.40;1.60
1351;DHT22;669;50.206;9.998;2024-03-02T10:44:35;10.40;1.00
1351;DHT22;669;50.206;9.998;2024-03-02T10:47:05;10.50;1.50
1351;DHT22;669;50.206;9.998;2024-03-02T10:49:33;10.90;1.60
1351;DHT22;669;50.206;9.998;2024-03-02T10:52:01;11.10;1.00
1351;DHT22;669;50.206;9.998;2024-03-02T10:54:30;11.30;1.00
1351;DHT22;669;50.206;9.998;2024-03-02T10:57:07;11.60;1.00
1351;DHT22;669;50.206;9.998;2024-03-02T10:59:40;12.20;1.00
1351;DHT22;669;50.206;9.998;2024-03-02T11:02:11;12.20;1.00
1351;DHT22;669;50.206;9.998;2024-03-02T11:04:40;12.30;1.00
1351;DHT22;669;50.206;9.998;2024-03-02T11:07:10;12.40;1.00
1351;DHT22;669;50.206;9.998;2024-03-02T11:09:45;12.90;1.00
1351;DHT22;669;50.206;9.998;2024-03-02T11:12:23;13.60;1.00
1351;DHT22;669;50.206;9.998;2024-03-02T11:14:51;14.20;1.00
1351;DHT22;669;50.206;9.998;2024-03-02T11:17:19;14.70;1.00
1351;DHT22;669;50.206;9.998;2024-03-02T11:19:48;15.00;1.00
1351;DHT22;669;50.206;9.998;2024-03-02T11:22:17;15.00;1.00
1351;DHT22;669;50.206;9.998;2024-03-02T11:24:49;15.30;1.00
1351;DHT22;669;50.206;9.998;2024-03-02T11:30:51;15.90;1.00
1351;DHT22;669;50.206;9.998;2024-03-02T11:33:26;16.30;1.00
1351;DHT22;669;50.206;9.998;2024-03-02T11:35:57;16.40;1.00
1351;DHT22;669;50.206;9.998;2024-03-02T11:38:31;16.10;1.00
1351;DHT22;669;50.206;9.998;2024-03-02T11:41:01;16.20;1.00
1351;DHT22;669;50.206;9.998;2024-03-02T11:43:29;16.20;1.00
1351;DHT22;669;50.206;9.998;2024-03-02T11:46:01;16.20;1.00
1351;DHT22;669;50.206;9.998;2024-03-02T11:48:35;16.50;1.00
1351;DHT22;669;50.206;9.998;2024-03-02T11:51:04;16.60;1.00
1351;DHT22;669;50.206;9.998;2024-03-02T11:53:33;16.40;1.00
1351;DHT22;669;50.206;9.998;2024-03-02T11:56:03;16.40;1.00
1351;DHT22;669;50.206;9.998;2024-03-02T11:58:35;16.40;1.00
1351;DHT22;669;50.206;9.998;2024-03-02T12:01:05;16.60;1.00
1351;DHT22;669;50.206;9.998;2024-03-02T12:03:34;16.60;1.00
1351;DHT22;669;50.206;9.998;2024-03-02T12:06:03;16.60;1.00
1351;DHT22;669;50.206;9.998;2024-03-02T12:08:32;16.30;1.00
1351;DHT22;669;50.206;9.998;2024-03-02T12:11:01;15.90;1.00
1351;DHT22;669;50.206;9.998;2024-03-02T12:13:31;16.20;1.00
1351;DHT22;669;50.206;9.998;2024-03-02T12:16:00;16.50;1.00
1351;DHT22;669;50.206;9.998;2024-03-02T12:18:29;16.80;1.00
1351;DHT22;669;50.206;9.998;2024-03-02T12:20:57;17.20;1.00
1351;DHT22;669;50.206;9.998;2024-03-02T12:23:26;17.80;1.00
1351;DHT22;669;50.206;9.998;2024-03-02T12:25:54;18.20;1.00
1351;DHT22;669;50.206;9.998;2024-03-02T12:28:22;18.50;1.00
1351;DHT22;669;50.206;9.998;2024-03-02T12:30:50;18.40;1.00
1351;DHT22;669;50.206;9.998;2024-03-02T12:33:19;18.30;1.00
1351;DHT22;669;50.206;9.998;2024-03-02T12:35:50;18.40;1.00
1351;DHT22;669;50.206;9.998;2024-03-02T12:38:18;18.40;1.00
1351;DHT22;669;50.206;9.998;2024-03-02T12:40:48;18.40;1.00
1351;DHT22;669;50.206;9.998;2024-03-02T12:43:16;18.10;1.00
1351;DHT22;669;50.206;9.998;2024-03-02T12:45:44;17.60;1.00
1351;DHT22;669;50.206;9.998;2024-03-02T12:48:13;17.60;1.00
1351;DHT22;669;50.206;9.998;2024-03-02T12:50:41;17.80;1.00
1351;DHT22;669;50.206;9.998;2024-03-02T12:53:15;17.80;1.00
1351;DHT22;669;50.206;9.998;2024-03-02T12:55:44;17.90;1.00
1351;DHT22;669;50.206;9.998;2024-03-02T12:58:17;17.60;1.00
1351;DHT22;669;50.206;9.998;2024-03-02T13:00:45;17.30;1.00
1351;DHT22;669;50.206;9.998;2024-03-02T13:03:13;17.40;1.00
1351;DHT22;669;50.206;9.998;2024-03-02T13:05:48;17.50;1.00
1351;DHT22;669;50.206;9.998;2024-03-02T13:08:18;17.50;1.00
1351;DHT22;669;50.206;9.998;2024-03-02T13:10:46;17.80;1.00
1351;DHT22;669;50.206;9.998;2024-03-02T13:13:14;18.00;1.00
1351;DHT22;669;50.206;9.998;2024-03-02T13:15:42;17.80;1.00
1351;DHT22;669;50.206;9.998;2024-03-02T13:18:11;17.50;1.00
1351;DHT22;669;50.206;9.998;2024-03-02T13:20:40;17.40;1.00
1351;DHT22;669;50.206;9.998;2024-03-02T13:23:08;17.30;1.00
1351;DHT22;669;50.206;9.998;2024-03-02T13:25:38;17.10;1.00
1351;DHT22;669;50.206;9.998;2024-03-02T13:28:06;17.20;1.00
1351;DHT22;669;50.206;9.998;2024-03-02T13:30:35;17.40;1.00
1351;DHT22;669;50.206;9.998;2024-03-02T13:33:03;17.50;1.00
1351;DHT22;669;50.206;9.998;2024-03-02T13:35:31;17.60;1.00
1351;DHT22;669;50.206;9.998;2024-03-02T13:37:59;17.50;1.00
1351;DHT22;669;50.206;9.998;2024-03-02T13:40:27;17.40;1.00
1351;DHT22;669;50.206;9.998;2024-03-02T13:42:57;17.30;1.00
1351;DHT22;669;50.206;9.998;2024-03-02T13:45:25;17.10;1.00
1351;DHT22;669;50.206;9.998;2024-03-02T13:47:54;16.70;1.00
1351;DHT22;669;50.206;9.998;2024-03-02T13:50:22;16.70;1.00
1351;DHT22;669;50.206;9.998;2024-03-02T13:52:50;16.60;1.00
1351;DHT22;669;50.206;9.998;2024-03-02T13:55:18;16.60;1.00
1351;DHT22;669;50.206;9.998;2024-03-02T13:57:47;16.40;1.00
1351;DHT22;669;50.206;9.998;2024-03-02T14:00:18;16.60;1.00
1351;DHT22;669;50.206;9.998;2024-03-02T14:02:47;16.70;1.00
1351;DHT22;669;50.206;9.998;2024-03-02T14:05:16;16.50;1.00
1351;DHT22;669;50.206;9.998;2024-03-02T14:07:46;16.30;1.00
1351;DHT22;669;50.206;9.998;2024-03-02T14:10:14;16.20;1.00
1351;DHT22;669;50.206;9.998;2024-03-02T14:12:42;16.40;1.00
1351;DHT22;669;50.206;9.998;2024-03-02T14:15:10;16.70;1.00
1351;DHT22;669;50.206;9.998;2024-03-02T14:17:40;16.70;1.00
1351;DHT22;669;50.206;9.998;2024-03-02T14:20:09;16.80;1.00
1351;DHT22;669;50.206;9.998;2024-03-02T14:22:39;16.80;1.00
1351;DHT22;669;50.206;9.998;2024-03-02T14:25:07;16.60;1.00
1351;DHT22;669;50.206;9.998;2024-03-02T14:27:36;16.40;1.00
1351;DHT22;669;50.206;9.998;2024-03-02T14:30:24;16.30;1.00
1351;DHT22;669;50.206;9.998;2024-03-02T14:32:53;16.10;1.00
1351;DHT22;669;50.206;9.998;2024-03-02T14:35:21;16.20;1.00
1351;DHT22;669;50.206;9.998;2024-03-02T14:37:49;16.30;1.00
1351;DHT22;669;50.206;9.998;2024-03-02T14:40:17;16.40;1.00
1351;DHT22;669;50.206;9.998;2024-03-02T14:42:46;16.30;1.00
1351;DHT22;669;50.206;9.998;2024-03-02T14:45:15;15.90;1.00
1351;DHT22;669;50.206;9.998;2024-03-02T14:47:43;15.90;1.00
1351;DHT22;669;50.206;9.998;2024-03-02T14:50:12;16.00;1.00
1351;DHT22;669;50.206;9.998;2024-03-02T14:52:44;15.90;1.00
1351;DHT22;669;50.206;9.998;2024-03-02T14:55:12;15.70;1.00
1351;DHT22;669;50.206;9.998;2024-03-02T14:57:40;15.50;1.00
1351;DHT22;669;50.206;9.998;2024-03-02T15:00:09;15.30;1.00
1351;DHT22;669;50.206;9.998;2024-03-02T15:02:38;15.00;1.00
1351;DHT22;669;50.206;9.998;2024-03-02T15:05:06;14.70;1.00
1351;DHT22;669;50.206;9.998;2024-03-02T15:07:36;14.20;1.00
1351;DHT22;669;50.206;9.998;2024-03-02T15:10:05;13.90;1.00
1351;DHT22;669;50.206;9.998;2024-03-02T15:12:34;13.70;1.00
1351;DHT22;669;50.206;9.998;2024-03-02T15:15:02;13.60;1.00
1351;DHT22;669;50.206;9.998;2024-03-02T15:17:30;13.60;1.00
1351;DHT22;669;50.206;9.998;2024-03-02T15:19:58;13.50;1.00
1351;DHT22;669;50.206;9.998;2024-03-02T15:22:26;13.50;1.00
1351;DHT22;669;50.206;9.998;2024-03-02T15:24:55;13.40;1.00
1351;DHT22;669;50.206;9.998;2024-03-02T15:27:23;13.30;1.00
1351;DHT22;669;50.206;9.998;2024-03-02T15:29:51;13.30;1.00
1351;DHT22;669;50.206;9.998;2024-03-02T15:32:20;13.20;1.00
1351;DHT22;669;50.206;9.998;2024-03-02T15:34:48;13.20;1.00
1351;DHT22;669;50.206;9.998;2024-03-02T15:37:16;13.20;1.00
1351;DHT22;669;50.206;9.998;2024-03-02T15:39:44;13.20;1.00
1351;DHT22;669;50.206;9.998;2024-03-02T15:42:13;13.30;1.00
1351;DHT22;669;50.206;9.998;2024-03-02T15:44:41;13.30;1.00
1351;DHT22;669;50.206;9.998;2024-03-02T15:47:11;13.20;1.00
1351;DHT22;669;50.206;9.998;2024-03-02T15:49:39;13.20;1.00
1351;DHT22;669;50.206;9.998;2024-03-02T15:52:07;13.20;1.00
1351;DHT22;669;50.206;9.998;2024-03-02T15:54:35;13.20;1.00
1351;DHT22;669;50.206;9.998;2024-03-02T15:57:04;13.10;1.00
1351;DHT22;669;50.206;9.998;2024-03-02T15:59:33;12.90;1.00
1351;DHT22;669;50.206;9.998;2024-03-02T16:02:01;12.90;1.00
1351;DHT22;669;50.206;9.998;2024-03-02T16:04:30;12.80;1.00
1351;DHT22;669;50.206;9.998;2024-03-02T16:06:58;12.80;1.00
1351;DHT22;669;50.206;9.998;2024-03-02T16:09:26;12.70;1.00
1351;DHT22;669;50.206;9.998;2024-03-02T16:11:54;12.60;1.00
1351;DHT22;669;50.206;9.998;2024-03-02T16:14:22;12.50;1.00
1351;DHT22;669;50.206;9.998;2024-03-02T16:16:51;12.40;1.00
1351;DHT22;669;50.206;9.998;2024-03-02T16:19:19;12.30;1.00
1351;DHT22;669;50.206;9.998;2024-03-02T16:21:58;12.20;1.00
1351;DHT22;669;50.206;9.998;2024-03-02T16:24:26;12.20;1.00
1351;DHT22;669;50.206;9.998;2024-03-02T16:26:54;12.10;1.00
1351;DHT22;669;50.206;9.998;2024-03-02T16:29:22;12.00;1.00
1351;DHT22;669;50.206;9.998;2024-03-02T16:31:52;11.90;1.00
1351;DHT22;669;50.206;9.998;2024-03-02T16:34:19;11.80;1.00
1351;DHT22;669;50.206;9.998;2024-03-02T16:36:48;11.70;1.00
1351;DHT22;669;50.206;9.998;2024-03-02T16:39:16;11.70;1.00
1351;DHT22;669;50.206;9.998;2024-03-02T16:41:44;11.60;1.00
1351;DHT22;669;50.206;9.998;2024-03-02T16:44:14;11.50;1.00
1351;DHT22;669;50.206;9.998;2024-03-02T16:46:42;11.30;1.00
1351;DHT22;669;50.206;9.998;2024-03-02T16:49:13;11.20;1.00